sensor_id;sensor_type;location;lat;lon;timestamp;temperature;humidity
45489;DHT22;31236;55.026;61.042;2022-08-24T00:01:30;14.50;87.70
45489;DHT22;31236;55.026;61.042;2022-08-24T00:04:00;14.50;87.70
45489;DHT22;31236;55.026;61.042;2022-08-24T00:06:30;14.50;87.90
45489;DHT22;31236;55.026;61.042;2022-08-24T00:09:00;14.50;88.00
45489;DHT22;31236;55.026;61.042;2022-08-24T00:11:31;14.50;88.00
45489;DHT22;31236;55.026;61.042;2022-08-24T00:14:01;14.50;87.90
45489;DHT22;31236;55.026;61.042;2022-08-24T00:16:31;14.50;87.90
45489;DHT22;31236;55.026;61.042;2022-08-24T00:19:01;14.40;87.90
45489;DHT22;31236;55.026;61.042;2022-08-24T00:21:31;14.40;88.10
45489;DHT22;31236;55.026;61.042;2022-08-24T00:24:02;14.40;88.10
45489;DHT22;31236;55.026;61.042;2022-08-24T00:26:32;14.50;88.00
45489;DHT22;31236;55.026;61.042;2022-08-24T00:29:03;14.40;87.90
45489;DHT22;31236;55.026;61.042;2022-08-24T00:31:33;14.40;87.90
45489;DHT22;31236;55.026;61.042;2022-08-24T00:34:03;14.40;87.90
45489;DHT22;31236;55.026;61.042;2022-08-24T00:36:34;14.30;87.80
45489;DHT22;31236;55.026;61.042;2022-08-24T00:39:05;14.30;88.20
45489;DHT22;31236;55.026;61.042;2022-08-24T00:44:26;14.20;88.10
45489;DHT22;31236;55.026;61.042;2022-08-24T00:50:07;14.10;88.40
45489;DHT22;31236;55.026;61.042;2022-08-24T00:53:15;14.10;88.30
45489;DHT22;31236;55.026;61.042;2022-08-24T00:55:32;14.10;88.60
45489;DHT22;31236;55.026;61.042;2022-08-24T00:58:43;14.10;88.70
45489;DHT22;31236;55.026;61.042;2022-08-24T01:03:27;14.10;88.70
45489;DHT22;31236;55.026;61.042;2022-08-24T01:05:58;14.00;88.70
45489;DHT22;31236;55.026;61.042;2022-08-24T01:08:29;14.10;89.20
45489;DHT22;31236;55.026;61.042;2022-08-24T01:11:20;14.10;89.20
45489;DHT22;31236;55.026;61.042;2022-08-24T01:13:52;14.10;89.20
45489;DHT22;31236;55.026;61.042;2022-08-24T01:16:22;14.10;89.20
45489;DHT22;31236;55.026;61.042;2022-08-24T01:25:30;14.00;88.90
45489;DHT22;31236;55.026;61.042;2022-08-24T01:30:52;13.90;89.50
45489;DHT22;31236;55.026;61.042;2022-08-24T01:33:41;13.90;89.50
45489;DHT22;31236;55.026;61.042;2022-08-24T01:42:13;14.00;89.90
45489;DHT22;31236;55.026;61.042;2022-08-24T01:44:45;14.00;90.00
45489;DHT22;31236;55.026;61.042;2022-08-24T01:47:16;14.10;90.00
45489;DHT22;31236;55.026;61.042;2022-08-24T01:49:47;14.20;90.00
45489;DHT22;31236;55.026;61.042;2022-08-24T01:52:21;14.20;90.00
45489;DHT22;31236;55.026;61.042;2022-08-24T01:54:50;14.30;90.20
45489;DHT22;31236;55.026;61.042;2022-08-24T02:00:13;14.40;90.30
45489;DHT22;31236;55.026;61.042;2022-08-24T02:02:44;14.50;90.30
45489;DHT22;31236;55.026;61.042;2022-08-24T02:05:15;14.50;90.40
45489;DHT22;31236;55.026;61.042;2022-08-24T02:07:45;14.60;90.50
45489;DHT22;31236;55.026;61.042;2022-08-24T02:10:16;14.70;90.50
45489;DHT22;31236;55.026;61.042;2022-08-24T02:12:48;14.80;90.50
45489;DHT22;31236;55.026;61.042;2022-08-24T02:15:38;14.90;90.50
45489;DHT22;31236;55.026;61.042;2022-08-24T02:18:10;15.10;90.40
45489;DHT22;31236;55.026;61.042;2022-08-24T02:20:40;15.20;90.30
45489;DHT22;31236;55.026;61.042;2022-08-24T02:23:11;15.30;90.10
45489;DHT22;31236;55.026;61.042;2022-08-24T02:25:42;15.40;90.10
45489;DHT22;31236;55.026;61.042;2022-08-24T02:28:12;15.50;89.90
45489;DHT22;31236;55.026;61.042;2022-08-24T02:30:43;15.70;89.40
45489;DHT22;31236;55.026;61.042;2022-08-24T02:33:13;15.80;88.80
45489;DHT22;31236;55.026;61.042;2022-08-24T02:35:43;16.00;88.40
45489;DHT22;31236;55.026;61.042;2022-08-24T02:38:14;16.10;88.20
45489;DHT22;31236;55.026;61.042;2022-08-24T02:40:44;16.20;87.60
45489;DHT22;31236;55.026;61.042;2022-08-24T02:43:15;16.30;87.50
45489;DHT22;31236;55.026;61.042;2022-08-24T02:45:45;16.50;86.90
45489;DHT22;31236;55.026;61.042;2022-08-24T02:48:16;16.60;86.50
45489;DHT22;31236;55.026;61.042;2022-08-24T02:50:48;16.70;86.20
45489;DHT22;31236;55.026;61.042;2022-08-24T02:53:20;16.80;85.70
45489;DHT22;31236;55.026;61.042;2022-08-24T02:55:50;16.80;85.60
45489;DHT22;31236;55.026;61.042;2022-08-24T02:58:21;16.90;85.30
45489;DHT22;31236;55.026;61.042;2022-08-24T03:00:51;17.00;84.80
45489;DHT22;31236;55.026;61.042;2022-08-24T03:03:21;17.10;84.50
45489;DHT22;31236;55.026;61.042;2022-08-24T03:05:51;17.20;84.40
45489;DHT22;31236;55.026;61.042;2022-08-24T03:08:22;17.20;83.80
45489;DHT22;31236;55.026;61.042;2022-08-24T03:10:52;17.40;84.20
45489;DHT22;31236;55.026;61.042;2022-08-24T03:13:23;17.50;84.10
45489;DHT22;31236;55.026;61.042;2022-08-24T03:15:54;17.60;84.50
45489;DHT22;31236;55.026;61.042;2022-08-24T03:18:25;17.70;83.70
45489;DHT22;31236;55.026;61.042;2022-08-24T03:20:56;17.80;83.30
45489;DHT22;31236;55.026;61.042;2022-08-24T03:23:27;17.80;83.00
45489;DHT22;31236;55.026;61.042;2022-08-24T03:25:57;17.90;82.90
45489;DHT22;31236;55.026;61.042;2022-08-24T03:28:28;18.00;82.50
45489;DHT22;31236;55.026;61.042;2022-08-24T03:30:58;18.00;82.80
45489;DHT22;31236;55.026;61.042;2022-08-24T03:33:29;18.00;82.40
45489;DHT22;31236;55.026;61.042;2022-08-24T03:36:00;18.10;82.00
45489;DHT22;31236;55.026;61.042;2022-08-24T03:38:31;18.10;83.10
45489;DHT22;31236;55.026;61.042;2022-08-24T03:41:01;18.20;82.60
45489;DHT22;31236;55.026;61.042;2022-08-24T03:43:32;18.20;82.60
45489;DHT22;31236;55.026;61.042;2022-08-24T03:46:24;18.30;81.90
45489;DHT22;31236;55.026;61.042;2022-08-24T03:48:57;18.40;80.90
45489;DHT22;31236;55.026;61.042;2022-08-24T03:51:28;18.50;81.70
45489;DHT22;31236;55.026;61.042;2022-08-24T03:53:59;18.60;81.80
45489;DHT22;31236;55.026;61.042;2022-08-24T03:56:30;18.60;80.90
45489;DHT22;31236;55.026;61.042;2022-08-24T03:59:01;18.70;81.20
45489;DHT22;31236;55.026;61.042;2022-08-24T04:01:31;18.90;80.90
45489;DHT22;31236;55.026;61.042;2022-08-24T04:04:02;18.90;79.80
45489;DHT22;31236;55.026;61.042;2022-08-24T04:06:33;19.00;79.80
45489;DHT22;31236;55.026;61.042;2022-08-24T04:09:04;19.10;80.00
45489;DHT22;31236;55.026;61.042;2022-08-24T04:11:34;19.20;80.00
45489;DHT22;31236;55.026;61.042;2022-08-24T04:14:05;19.30;79.40
45489;DHT22;31236;55.026;61.042;2022-08-24T04:16:36;19.40;79.20
45489;DHT22;31236;55.026;61.042;2022-08-24T04:19:06;19.50;79.20
45489;DHT22;31236;55.026;61.042;2022-08-24T04:21:37;19.60;78.90
45489;DHT22;31236;55.026;61.042;2022-08-24T04:24:08;19.70;79.00
45489;DHT22;31236;55.026;61.042;2022-08-24T04:26:40;19.70;78.00
45489;DHT22;31236;55.026;61.042;2022-08-24T04:29:11;19.80;77.50
45489;DHT22;31236;55.026;61.042;2022-08-24T04:31:43;19.90;79.20
45489;DHT22;31236;55.026;61.042;2022-08-24T04:34:13;20.00;77.60
45489;DHT22;31236;55.026;61.042;2022-08-24T04:36:45;20.10;77.70
45489;DHT22;31236;55.026;61.042;2022-08-24T04:39:15;20.10;76.80
45489;DHT22;31236;55.026;61.042;2022-08-24T04:41:45;20.20;77.40
45489;DHT22;31236;55.026;61.042;2022-08-24T04:44:16;20.30;77.40
45489;DHT22;31236;55.026;61.042;2022-08-24T04:46:46;20.40;76.40
45489;DHT22;31236;55.026;61.042;2022-08-24T04:49:18;20.60;76.20
45489;DHT22;31236;55.026;61.042;2022-08-24T04:51:48;20.70;77.10
45489;DHT22;31236;55.026;61.042;2022-08-24T04:54:18;20.80;77.00
45489;DHT22;31236;55.026;61.042;2022-08-24T04:56:49;21.00;75.60
45489;DHT22;31236;55.026;61.042;2022-08-24T04:59:19;21.00;74.40
45489;DHT22;31236;55.026;61.042;2022-08-24T05:01:49;21.10;72.80
45489;DHT22;31236;55.026;61.042;2022-08-24T05:04:19;21.20;72.80
45489;DHT22;31236;55.026;61.042;2022-08-24T05:06:50;21.20;74.20
45489;DHT22;31236;55.026;61.042;2022-08-24T05:09:20;21.30;75.70
45489;DHT22;31236;55.026;61.042;2022-08-24T05:11:51;21.40;75.00
45489;DHT22;31236;55.026;61.042;2022-08-24T05:14:21;21.50;75.10
45489;DHT22;31236;55.026;61.042;2022-08-24T05:16:53;21.50;72.80
45489;DHT22;31236;55.026;61.042;2022-08-24T05:19:24;21.60;72.10
45489;DHT22;31236;55.026;61.042;2022-08-24T05:21:55;21.60;71.30
45489;DHT22;31236;55.026;61.042;2022-08-24T05:24:25;21.70;71.60
45489;DHT22;31236;55.026;61.042;2022-08-24T05:26:55;21.70;71.60
45489;DHT22;31236;55.026;61.042;2022-08-24T05:29:26;21.80;71.70
45489;DHT22;31236;55.026;61.042;2022-08-24T05:31:58;21.90;71.90
45489;DHT22;31236;55.026;61.042;2022-08-24T05:34:29;22.00;71.40
45489;DHT22;31236;55.026;61.042;2022-08-24T05:37:01;22.10;71.80
45489;DHT22;31236;55.026;61.042;2022-08-24T05:39:31;22.20;73.30
45489;DHT22;31236;55.026;61.042;2022-08-24T05:42:01;22.30;71.40
45489;DHT22;31236;55.026;61.042;2022-08-24T05:44:31;22.40;69.70
45489;DHT22;31236;55.026;61.042;2022-08-24T05:47:02;22.40;72.50
45489;DHT22;31236;55.026;61.042;2022-08-24T05:49:32;22.60;71.60
45489;DHT22;31236;55.026;61.042;2022-08-24T05:52:03;22.60;68.90
45489;DHT22;31236;55.026;61.042;2022-08-24T05:54:38;22.60;68.80
45489;DHT22;31236;55.026;61.042;2022-08-24T05:57:09;22.60;67.40
45489;DHT22;31236;55.026;61.042;2022-08-24T05:59:39;22.60;67.10
45489;DHT22;31236;55.026;61.042;2022-08-24T06:02:09;22.60;68.90
45489;DHT22;31236;55.026;61.042;2022-08-24T06:04:39;22.70;68.80
45489;DHT22;31236;55.026;61.042;2022-08-24T06:07:14;22.80;71.70
45489;DHT22;31236;55.026;61.042;2022-08-24T06:09:44;22.80;70.10
45489;DHT22;31236;55.026;61.042;2022-08-24T06:12:15;23.00;68.70
45489;DHT22;31236;55.026;61.042;2022-08-24T06:14:47;23.00;67.70
45489;DHT22;31236;55.026;61.042;2022-08-24T06:17:19;23.10;67.50
45489;DHT22;31236;55.026;61.042;2022-08-24T06:19:51;23.20;67.10
45489;DHT22;31236;55.026;61.042;2022-08-24T06:22:22;23.30;67.10
45489;DHT22;31236;55.026;61.042;2022-08-24T06:24:54;23.40;68.70
45489;DHT22;31236;55.026;61.042;2022-08-24T06:27:44;23.40;68.00
45489;DHT22;31236;55.026;61.042;2022-08-24T06:30:14;23.50;65.70
45489;DHT22;31236;55.026;61.042;2022-08-24T06:32:45;23.60;63.90
45489;DHT22;31236;55.026;61.042;2022-08-24T06:35:15;23.70;64.50
45489;DHT22;31236;55.026;61.042;2022-08-24T06:37:46;23.70;65.00
45489;DHT22;31236;55.026;61.042;2022-08-24T06:40:16;23.90;61.50
45489;DHT22;31236;55.026;61.042;2022-08-24T06:42:47;23.90;61.30
45489;DHT22;31236;55.026;61.042;2022-08-24T06:45:18;24.00;60.60
45489;DHT22;31236;55.026;61.042;2022-08-24T06:47:50;24.10;60.60
45489;DHT22;31236;55.026;61.042;2022-08-24T06:50:20;24.20;62.70
45489;DHT22;31236;55.026;61.042;2022-08-24T06:52:51;24.30;58.70
45489;DHT22;31236;55.026;61.042;2022-08-24T06:55:23;24.40;58.20
45489;DHT22;31236;55.026;61.042;2022-08-24T06:57:54;24.50;58.40
45489;DHT22;31236;55.026;61.042;2022-08-24T07:00:25;24.50;57.90
45489;DHT22;31236;55.026;61.042;2022-08-24T07:02:57;24.50;57.00
45489;DHT22;31236;55.026;61.042;2022-08-24T07:05:28;24.50;56.40
45489;DHT22;31236;55.026;61.042;2022-08-24T07:07:59;24.50;57.80
45489;DHT22;31236;55.026;61.042;2022-08-24T07:10:29;24.60;59.70
45489;DHT22;31236;55.026;61.042;2022-08-24T07:13:03;24.70;60.00
45489;DHT22;31236;55.026;61.042;2022-08-24T07:15:34;24.80;56.20
45489;DHT22;31236;55.026;61.042;2022-08-24T07:18:04;24.80;54.90
45489;DHT22;31236;55.026;61.042;2022-08-24T07:20:36;24.80;55.40
45489;DHT22;31236;55.026;61.042;2022-08-24T07:23:07;24.90;58.20
45489;DHT22;31236;55.026;61.042;2022-08-24T07:28:29;25.10;54.70
45489;DHT22;31236;55.026;61.042;2022-08-24T07:30:59;25.10;54.60
45489;DHT22;31236;55.026;61.042;2022-08-24T07:33:31;25.10;55.20
45489;DHT22;31236;55.026;61.042;2022-08-24T07:36:03;25.20;51.90
45489;DHT22;31236;55.026;61.042;2022-08-24T07:38:34;25.20;52.40
45489;DHT22;31236;55.026;61.042;2022-08-24T07:41:05;25.20;51.60
45489;DHT22;31236;55.026;61.042;2022-08-24T07:43:37;25.20;52.30
45489;DHT22;31236;55.026;61.042;2022-08-24T07:46:08;25.30;53.40
45489;DHT22;31236;55.026;61.042;2022-08-24T07:48:40;25.30;53.00
45489;DHT22;31236;55.026;61.042;2022-08-24T07:51:13;25.40;49.40
45489;DHT22;31236;55.026;61.042;2022-08-24T07:53:43;25.40;50.00
45489;DHT22;31236;55.026;61.042;2022-08-24T07:56:14;25.50;51.10
45489;DHT22;31236;55.026;61.042;2022-08-24T07:58:44;25.50;56.20
45489;DHT22;31236;55.026;61.042;2022-08-24T08:01:15;25.50;54.00
45489;DHT22;31236;55.026;61.042;2022-08-24T08:03:46;25.50;51.60
45489;DHT22;31236;55.026;61.042;2022-08-24T08:06:17;25.50;50.90
45489;DHT22;31236;55.026;61.042;2022-08-24T08:08:47;25.60;51.60
45489;DHT22;31236;55.026;61.042;2022-08-24T08:11:18;25.60;52.90
45489;DHT22;31236;55.026;61.042;2022-08-24T08:13:49;25.70;53.10
45489;DHT22;31236;55.026;61.042;2022-08-24T08:16:22;25.70;52.20
45489;DHT22;31236;55.026;61.042;2022-08-24T08:18:52;25.70;49.00
45489;DHT22;31236;55.026;61.042;2022-08-24T08:21:23;25.80;49.80
45489;DHT22;31236;55.026;61.042;2022-08-24T08:24:12;25.80;49.10
45489;DHT22;31236;55.026;61.042;2022-08-24T08:26:46;25.80;49.80
45489;DHT22;31236;55.026;61.042;2022-08-24T08:29:36;25.80;51.70
45489;DHT22;31236;55.026;61.042;2022-08-24T08:32:09;25.90;50.10
45489;DHT22;31236;55.026;61.042;2022-08-24T08:34:42;25.90;49.70
45489;DHT22;31236;55.026;61.042;2022-08-24T08:37:13;25.90;49.00
45489;DHT22;31236;55.026;61.042;2022-08-24T08:39:44;25.90;50.60
45489;DHT22;31236;55.026;61.042;2022-08-24T08:42:54;26.00;47.00
45489;DHT22;31236;55.026;61.042;2022-08-24T08:51:14;26.30;46.10
45489;DHT22;31236;55.026;61.042;2022-08-24T09:20:56;26.50;46.60
45489;DHT22;31236;55.026;61.042;2022-08-24T10:08:54;26.90;44.50
45489;DHT22;31236;55.026;61.042;2022-08-24T10:35:21;27.40;40.20
45489;DHT22;31236;55.026;61.042;2022-08-24T10:46:34;27.50;38.60
45489;DHT22;31236;55.026;61.042;2022-08-24T10:55:25;27.50;37.80
45489;DHT22;31236;55.026;61.042;2022-08-24T11:03:58;27.50;41.40
45489;DHT22;31236;55.026;61.042;2022-08-24T11:06:31;27.60;41.50
45489;DHT22;31236;55.026;61.042;2022-08-24T11:11:53;27.60;39.00
45489;DHT22;31236;55.026;61.042;2022-08-24T11:14:25;27.50;38.80
45489;DHT22;31236;55.026;61.042;2022-08-24T11:19:47;27.50;41.70
45489;DHT22;31236;55.026;61.042;2022-08-24T11:25:28;27.60;38.50
45489;DHT22;31236;55.026;61.042;2022-08-24T11:31:11;27.60;40.80
45489;DHT22;31236;55.026;61.042;2022-08-24T11:36:50;27.70;41.70
45489;DHT22;31236;55.026;61.042;2022-08-24T11:39:40;27.70;40.10
45489;DHT22;31236;55.026;61.042;2022-08-24T11:55:09;27.50;41.30
45489;DHT22;31236;55.026;61.042;2022-08-24T12:00:32;27.50;41.80
45489;DHT22;31236;55.026;61.042;2022-08-24T12:14:58;27.60;41.70
45489;DHT22;31236;55.026;61.042;2022-08-24T12:35:51;27.60;38.30
45489;DHT22;31236;55.026;61.042;2022-08-24T12:38:41;27.60;39.20
45489;DHT22;31236;55.026;61.042;2022-08-24T12:41:31;27.50;39.00
45489;DHT22;31236;55.026;61.042;2022-08-24T12:44:21;27.50;39.00
45489;DHT22;31236;55.026;61.042;2022-08-24T12:46:52;27.50;38.80
45489;DHT22;31236;55.026;61.042;2022-08-24T12:49:26;27.60;38.10
45489;DHT22;31236;55.026;61.042;2022-08-24T13:01:06;27.50;38.10
45489;DHT22;31236;55.026;61.042;2022-08-24T13:03:39;27.40;40.80
45489;DHT22;31236;55.026;61.042;2022-08-24T13:21:41;27.30;41.10
45489;DHT22;31236;55.026;61.042;2022-08-24T13:33:04;27.20;43.10
45489;DHT22;31236;55.026;61.042;2022-08-24T13:38:30;27.10;43.70
45489;DHT22;31236;55.026;61.042;2022-08-24T13:43:53;27.10;44.60
45489;DHT22;31236;55.026;61.042;2022-08-24T13:56:11;27.00;51.40
45489;DHT22;31236;55.026;61.042;2022-08-24T14:01:56;26.90;54.00
45489;DHT22;31236;55.026;61.042;2022-08-24T14:20:13;26.00;54.40
45489;DHT22;31236;55.026;61.042;2022-08-24T14:25:50;25.70;57.40
45489;DHT22;31236;55.026;61.042;2022-08-24T14:28:41;25.40;59.40
45489;DHT22;31236;55.026;61.042;2022-08-24T14:43:18;24.70;60.10
45489;DHT22;31236;55.026;61.042;2022-08-24T15:00:21;23.60;63.20
45489;DHT22;31236;55.026;61.042;2022-08-24T15:08:36;23.00;66.10
45489;DHT22;31236;55.026;61.042;2022-08-24T15:11:10;22.80;66.50
45489;DHT22;31236;55.026;61.042;2022-08-24T15:14:03;22.70;67.30
45489;DHT22;31236;55.026;61.042;2022-08-24T15:16:59;22.60;67.10
45489;DHT22;31236;55.026;61.042;2022-08-24T15:19:29;22.50;67.70
45489;DHT22;31236;55.026;61.042;2022-08-24T15:28:06;22.20;67.90
45489;DHT22;31236;55.026;61.042;2022-08-24T15:30:33;22.10;67.40
45489;DHT22;31236;55.026;61.042;2022-08-24T15:33:23;21.90;67.70
45489;DHT22;31236;55.026;61.042;2022-08-24T15:36:15;21.90;68.30
45489;DHT22;31236;55.026;61.042;2022-08-24T15:38:45;21.70;69.00
45489;DHT22;31236;55.026;61.042;2022-08-24T15:44:26;21.60;69.00
45489;DHT22;31236;55.026;61.042;2022-08-24T15:56:57;21.10;69.50
45489;DHT22;31236;55.026;61.042;2022-08-24T15:59:50;21.00;69.50
45489;DHT22;31236;55.026;61.042;2022-08-24T16:08:10;20.80;70.40
45489;DHT22;31236;55.026;61.042;2022-08-24T16:13:31;20.50;70.30
45489;DHT22;31236;55.026;61.042;2022-08-24T16:22:50;20.40;71.10
45489;DHT22;31236;55.026;61.042;2022-08-24T16:25:06;20.40;70.90
45489;DHT22;31236;55.026;61.042;2022-08-24T16:27:24;20.30;71.10
45489;DHT22;31236;55.026;61.042;2022-08-24T16:29:57;20.20;71.10
45489;DHT22;31236;55.026;61.042;2022-08-24T16:35:36;20.10;71.50
45489;DHT22;31236;55.026;61.042;2022-08-24T16:38:07;20.00;71.80
45489;DHT22;31236;55.026;61.042;2022-08-24T16:40:37;20.00;72.10
45489;DHT22;31236;55.026;61.042;2022-08-24T16:43:09;19.90;72.50
45489;DHT22;31236;55.026;61.042;2022-08-24T16:45:40;19.90;72.50
45489;DHT22;31236;55.026;61.042;2022-08-24T16:48:10;19.80;72.70
45489;DHT22;31236;55.026;61.042;2022-08-24T16:50:41;19.80;73.10
45489;DHT22;31236;55.026;61.042;2022-08-24T16:53:11;19.80;73.30
45489;DHT22;31236;55.026;61.042;2022-08-24T16:55:41;19.80;73.50
45489;DHT22;31236;55.026;61.042;2022-08-24T16:58:11;19.70;73.80
45489;DHT22;31236;55.026;61.042;2022-08-24T17:00:42;19.70;73.80
45489;DHT22;31236;55.026;61.042;2022-08-24T17:03:12;19.70;73.70
45489;DHT22;31236;55.026;61.042;2022-08-24T17:05:42;19.60;73.70
45489;DHT22;31236;55.026;61.042;2022-08-24T17:08:12;19.60;73.70
45489;DHT22;31236;55.026;61.042;2022-08-24T17:10:42;19.60;73.80
45489;DHT22;31236;55.026;61.042;2022-08-24T17:13:13;19.60;73.80
45489;DHT22;31236;55.026;61.042;2022-08-24T17:15:43;19.60;73.60
45489;DHT22;31236;55.026;61.042;2022-08-24T17:18:15;19.50;73.70
45489;DHT22;31236;55.026;61.042;2022-08-24T17:21:05;19.50;74.00
45489;DHT22;31236;55.026;61.042;2022-08-24T17:23:36;19.50;74.30
45489;DHT22;31236;55.026;61.042;2022-08-24T17:26:43;19.40;74.40
45489;DHT22;31236;55.026;61.042;2022-08-24T17:28:41;19.40;74.50
45489;DHT22;31236;55.026;61.042;2022-08-24T17:31:13;19.30;74.80
45489;DHT22;31236;55.026;61.042;2022-08-24T17:33:43;19.30;75.00
45489;DHT22;31236;55.026;61.042;2022-08-24T17:36:16;19.30;75.10
45489;DHT22;31236;55.026;61.042;2022-08-24T17:38:48;19.30;75.00
45489;DHT22;31236;55.026;61.042;2022-08-24T17:41:19;19.20;74.70
45489;DHT22;31236;55.026;61.042;2022-08-24T17:43:50;19.20;74.90
45489;DHT22;31236;55.026;61.042;2022-08-24T17:46:20;19.20;75.40
45489;DHT22;31236;55.026;61.042;2022-08-24T17:48:50;19.20;75.50
45489;DHT22;31236;55.026;61.042;2022-08-24T17:51:21;19.10;75.20
45489;DHT22;31236;55.026;61.042;2022-08-24T17:53:51;19.10;74.80
45489;DHT22;31236;55.026;61.042;2022-08-24T17:56:21;19.10;75.20
45489;DHT22;31236;55.026;61.042;2022-08-24T17:58:52;19.00;75.40
45489;DHT22;31236;55.026;61.042;2022-08-24T18:01:41;19.00;75.70
45489;DHT22;31236;55.026;61.042;2022-08-24T18:04:12;18.90;75.70
45489;DHT22;31236;55.026;61.042;2022-08-24T18:06:43;18.90;76.10
45489;DHT22;31236;55.026;61.042;2022-08-24T18:09:33;18.90;76.20
45489;DHT22;31236;55.026;61.042;2022-08-24T18:12:05;18.90;76.50
45489;DHT22;31236;55.026;61.042;2022-08-24T18:14:36;18.80;76.30
45489;DHT22;31236;55.026;61.042;2022-08-24T18:17:09;18.80;76.70
45489;DHT22;31236;55.026;61.042;2022-08-24T18:19:40;18.70;76.70
45489;DHT22;31236;55.026;61.042;2022-08-24T18:22:11;18.70;76.60
45489;DHT22;31236;55.026;61.042;2022-08-24T18:24:41;18.70;76.70
45489;DHT22;31236;55.026;61.042;2022-08-24T18:27:31;18.60;76.60
45489;DHT22;31236;55.026;61.042;2022-08-24T18:30:04;18.60;77.00
45489;DHT22;31236;55.026;61.042;2022-08-24T18:32:35;18.60;77.30
45489;DHT22;31236;55.026;61.042;2022-08-24T18:35:06;18.50;77.50
45489;DHT22;31236;55.026;61.042;2022-08-24T18:37:37;18.30;78.00
45489;DHT22;31236;55.026;61.042;2022-08-24T18:40:07;18.20;78.20
45489;DHT22;31236;55.026;61.042;2022-08-24T18:42:39;18.30;78.00
45489;DHT22;31236;55.026;61.042;2022-08-24T18:45:10;18.30;78.00
45489;DHT22;31236;55.026;61.042;2022-08-24T18:47:41;18.30;78.10
45489;DHT22;31236;55.026;61.042;2022-08-24T18:50:11;18.30;78.40
45489;DHT22;31236;55.026;61.042;2022-08-24T18:52:41;18.20;78.40
45489;DHT22;31236;55.026;61.042;2022-08-24T18:55:11;18.20;78.60
45489;DHT22;31236;55.026;61.042;2022-08-24T18:57:42;18.20;78.80
45489;DHT22;31236;55.026;61.042;2022-08-24T19:02:41;18.20;78.50
45489;DHT22;31236;55.026;61.042;2022-08-24T19:05:14;18.20;78.40
45489;DHT22;31236;55.026;61.042;2022-08-24T19:07:47;18.20;78.00
45489;DHT22;31236;55.026;61.042;2022-08-24T19:13:11;18.20;75.90
45489;DHT22;31236;55.026;61.042;2022-08-24T19:15:43;18.20;75.00
45489;DHT22;31236;55.026;61.042;2022-08-24T19:18:14;18.20;74.60
45489;DHT22;31236;55.026;61.042;2022-08-24T19:20:47;18.30;76.00
45489;DHT22;31236;55.026;61.042;2022-08-24T19:23:21;18.20;76.70
45489;DHT22;31236;55.026;61.042;2022-08-24T19:25:51;18.10;77.50
45489;DHT22;31236;55.026;61.042;2022-08-24T19:28:23;18.00;78.00
45489;DHT22;31236;55.026;61.042;2022-08-24T19:30:55;17.90;78.70
45489;DHT22;31236;55.026;61.042;2022-08-24T19:33:30;17.90;78.90
45489;DHT22;31236;55.026;61.042;2022-08-24T19:36:00;17.80;79.10
45489;DHT22;31236;55.026;61.042;2022-08-24T19:38:30;17.70;79.50
45489;DHT22;31236;55.026;61.042;2022-08-24T19:41:01;17.60;79.80
45489;DHT22;31236;55.026;61.042;2022-08-24T19:43:32;17.60;80.10
45489;DHT22;31236;55.026;61.042;2022-08-24T19:46:04;17.60;80.10
45489;DHT22;31236;55.026;61.042;2022-08-24T19:48:37;17.60;80.10
45489;DHT22;31236;55.026;61.042;2022-08-24T19:51:09;17.50;80.30
45489;DHT22;31236;55.026;61.042;2022-08-24T19:53:41;17.50;80.70
45489;DHT22;31236;55.026;61.042;2022-08-24T19:56:11;17.50;80.90
45489;DHT22;31236;55.026;61.042;2022-08-24T19:59:01;17.40;81.20
45489;DHT22;31236;55.026;61.042;2022-08-24T20:01:33;17.40;81.40
45489;DHT22;31236;55.026;61.042;2022-08-24T20:04:05;17.30;81.20
45489;DHT22;31236;55.026;61.042;2022-08-24T20:06:37;17.30;81.30
45489;DHT22;31236;55.026;61.042;2022-08-24T20:09:08;17.30;81.10
45489;DHT22;31236;55.026;61.042;2022-08-24T20:11:39;17.30;81.10
45489;DHT22;31236;55.026;61.042;2022-08-24T20:14:09;17.30;80.70
45489;DHT22;31236;55.026;61.042;2022-08-24T20:16:40;17.30;80.60
45489;DHT22;31236;55.026;61.042;2022-08-24T20:19:11;17.30;80.50
45489;DHT22;31236;55.026;61.042;2022-08-24T20:21:41;17.20;81.10
45489;DHT22;31236;55.026;61.042;2022-08-24T20:24:12;17.20;81.30
45489;DHT22;31236;55.026;61.042;2022-08-24T20:26:43;17.10;81.50
45489;DHT22;31236;55.026;61.042;2022-08-24T20:29:14;17.00;82.00
45489;DHT22;31236;55.026;61.042;2022-08-24T20:31:44;16.90;82.30
45489;DHT22;31236;55.026;61.042;2022-08-24T20:34:15;16.90;82.30
45489;DHT22;31236;55.026;61.042;2022-08-24T20:36:47;16.90;82.30
45489;DHT22;31236;55.026;61.042;2022-08-24T20:39:20;16.90;82.10
45489;DHT22;31236;55.026;61.042;2022-08-24T20:41:51;16.80;82.10
45489;DHT22;31236;55.026;61.042;2022-08-24T20:44:22;16.80;82.20
45489;DHT22;31236;55.026;61.042;2022-08-24T20:46:53;16.80;82.50
45489;DHT22;31236;55.026;61.042;2022-08-24T20:49:24;16.80;82.70
45489;DHT22;31236;55.026;61.042;2022-08-24T20:51:55;16.80;82.60
45489;DHT22;31236;55.026;61.042;2022-08-24T20:54:26;16.70;83.00
45489;DHT22;31236;55.026;61.042;2022-08-24T20:56:56;16.60;83.30
45489;DHT22;31236;55.026;61.042;2022-08-24T20:59:27;16.60;83.30
45489;DHT22;31236;55.026;61.042;2022-08-24T21:01:57;16.60;83.20
45489;DHT22;31236;55.026;61.042;2022-08-24T21:04:28;16.60;83.40
45489;DHT22;31236;55.026;61.042;2022-08-24T21:06:58;16.50;83.30
45489;DHT22;31236;55.026;61.042;2022-08-24T21:09:29;16.60;83.20
45489;DHT22;31236;55.026;61.042;2022-08-24T21:11:59;16.50;83.20
45489;DHT22;31236;55.026;61.042;2022-08-24T21:14:30;16.50;83.40
45489;DHT22;31236;55.026;61.042;2022-08-24T21:17:00;16.60;83.40
45489;DHT22;31236;55.026;61.042;2022-08-24T21:19:32;16.60;83.40
45489;DHT22;31236;55.026;61.042;2022-08-24T21:22:02;16.60;83.40
45489;DHT22;31236;55.026;61.042;2022-08-24T21:24:33;16.60;83.40
45489;DHT22;31236;55.026;61.042;2022-08-24T21:27:03;16.60;83.60
45489;DHT22;31236;55.026;61.042;2022-08-24T21:29:33;16.60;83.60
45489;DHT22;31236;55.026;61.042;2022-08-24T21:32:03;16.60;83.70
45489;DHT22;31236;55.026;61.042;2022-08-24T21:34:53;16.60;83.80
45489;DHT22;31236;55.026;61.042;2022-08-24T21:37:23;16.50;84.10
45489;DHT22;31236;55.026;61.042;2022-08-24T21:39:53;16.50;84.30
45489;DHT22;31236;55.026;61.042;2022-08-24T21:42:24;16.40;84.60
45489;DHT22;31236;55.026;61.042;2022-08-24T21:44:54;16.40;84.60
45489;DHT22;31236;55.026;61.042;2022-08-24T21:47:24;16.40;84.60